sensor_id;sensor_type;location;lat;lon;timestamp;temperature;humidity
25192;DHT22;13143;50.924;5.320;2022-08-27T00:01:16;20.70;99.90
25192;DHT22;13143;50.924;5.320;2022-08-27T00:03:43;20.70;99.90
25192;DHT22;13143;50.924;5.320;2022-08-27T00:06:12;20.70;99.90
25192;DHT22;13143;50.924;5.320;2022-08-27T00:08:39;20.60;99.90
25192;DHT22;13143;50.924;5.320;2022-08-27T00:11:05;20.60;99.90
25192;DHT22;13143;50.924;5.320;2022-08-27T00:13:31;20.60;99.90
25192;DHT22;13143;50.924;5.320;2022-08-27T00:15:57;20.60;99.90
25192;DHT22;13143;50.924;5.320;2022-08-27T00:18:23;20.60;99.90
25192;DHT22;13143;50.924;5.320;2022-08-27T00:20:49;20.60;99.90
25192;DHT22;13143;50.924;5.320;2022-08-27T00:23:15;20.50;99.90
25192;DHT22;13143;50.924;5.320;2022-08-27T00:25:41;20.50;99.90
25192;DHT22;13143;50.924;5.320;2022-08-27T00:28:07;20.50;99.90
25192;DHT22;13143;50.924;5.320;2022-08-27T00:30:33;20.50;99.90
25192;DHT22;13143;50.924;5.320;2022-08-27T00:32:58;20.50;99.90
25192;DHT22;13143;50.924;5.320;2022-08-27T00:35:24;20.40;99.90
25192;DHT22;13143;50.924;5.320;2022-08-27T00:37:51;20.40;99.90
25192;DHT22;13143;50.924;5.320;2022-08-27T00:40:19;20.40;99.90
25192;DHT22;13143;50.924;5.320;2022-08-27T00:42:45;20.40;99.90
25192;DHT22;13143;50.924;5.320;2022-08-27T00:45:13;20.40;99.90
25192;DHT22;13143;50.924;5.320;2022-08-27T00:47:44;20.40;99.90
25192;DHT22;13143;50.924;5.320;2022-08-27T00:50:14;20.40;99.90
25192;DHT22;13143;50.924;5.320;2022-08-27T00:52:50;20.30;99.90
25192;DHT22;13143;50.924;5.320;2022-08-27T00:55:23;20.30;99.90
25192;DHT22;13143;50.924;5.320;2022-08-27T00:58:03;20.30;99.90
25192;DHT22;13143;50.924;5.320;2022-08-27T01:00:30;20.30;99.90
25192;DHT22;13143;50.924;5.320;2022-08-27T01:02:55;20.30;99.90
25192;DHT22;13143;50.924;5.320;2022-08-27T01:05:22;20.30;99.90
25192;DHT22;13143;50.924;5.320;2022-08-27T01:07:55;20.20;99.90
25192;DHT22;13143;50.924;5.320;2022-08-27T01:10:24;20.20;99.90
25192;DHT22;13143;50.924;5.320;2022-08-27T01:12:51;20.20;99.90
25192;DHT22;13143;50.924;5.320;2022-08-27T01:15:18;20.20;99.90
25192;DHT22;13143;50.924;5.320;2022-08-27T01:17:46;20.20;99.90
25192;DHT22;13143;50.924;5.320;2022-08-27T01:20:26;20.20;99.90
25192;DHT22;13143;50.924;5.320;2022-08-27T01:23:05;20.20;99.90
25192;DHT22;13143;50.924;5.320;2022-08-27T01:25:34;20.10;99.90
25192;DHT22;13143;50.924;5.320;2022-08-27T01:28:02;20.10;99.90
25192;DHT22;13143;50.924;5.320;2022-08-27T01:30:30;20.10;99.90
25192;DHT22;13143;50.924;5.320;2022-08-27T01:32:56;20.10;99.90
25192;DHT22;13143;50.924;5.320;2022-08-27T01:35:23;20.10;99.90
25192;DHT22;13143;50.924;5.320;2022-08-27T01:37:50;20.00;99.90
25192;DHT22;13143;50.924;5.320;2022-08-27T01:40:19;20.00;99.90
25192;DHT22;13143;50.924;5.320;2022-08-27T01:42:50;20.10;99.90
25192;DHT22;13143;50.924;5.320;2022-08-27T01:45:23;20.00;99.90
25192;DHT22;13143;50.924;5.320;2022-08-27T01:47:49;20.00;99.90
25192;DHT22;13143;50.924;5.320;2022-08-27T01:50:21;20.00;99.90
25192;DHT22;13143;50.924;5.320;2022-08-27T01:52:47;20.00;99.90
25192;DHT22;13143;50.924;5.320;2022-08-27T01:55:17;20.00;99.90
25192;DHT22;13143;50.924;5.320;2022-08-27T01:57:43;19.90;99.90
25192;DHT22;13143;50.924;5.320;2022-08-27T02:00:22;19.90;99.90
25192;DHT22;13143;50.924;5.320;2022-08-27T02:02:48;19.90;99.90
25192;DHT22;13143;50.924;5.320;2022-08-27T02:05:14;19.90;99.90
25192;DHT22;13143;50.924;5.320;2022-08-27T02:07:40;19.90;99.90
25192;DHT22;13143;50.924;5.320;2022-08-27T02:10:08;19.80;99.90
25192;DHT22;13143;50.924;5.320;2022-08-27T02:12:34;19.80;99.90
25192;DHT22;13143;50.924;5.320;2022-08-27T02:15:00;19.80;99.90
25192;DHT22;13143;50.924;5.320;2022-08-27T02:17:26;19.80;99.90
25192;DHT22;13143;50.924;5.320;2022-08-27T02:19:52;19.80;99.90
25192;DHT22;13143;50.924;5.320;2022-08-27T02:22:17;19.80;99.90
25192;DHT22;13143;50.924;5.320;2022-08-27T02:24:43;19.70;99.90
25192;DHT22;13143;50.924;5.320;2022-08-27T02:27:09;19.70;99.90
25192;DHT22;13143;50.924;5.320;2022-08-27T02:29:35;19.70;99.90
25192;DHT22;13143;50.924;5.320;2022-08-27T02:32:01;19.70;99.90
25192;DHT22;13143;50.924;5.320;2022-08-27T02:34:27;19.70;99.90
25192;DHT22;13143;50.924;5.320;2022-08-27T02:36:53;19.70;99.90
25192;DHT22;13143;50.924;5.320;2022-08-27T02:39:19;19.60;99.90
25192;DHT22;13143;50.924;5.320;2022-08-27T02:41:45;19.60;99.90
25192;DHT22;13143;50.924;5.320;2022-08-27T02:44:11;19.60;99.90
25192;DHT22;13143;50.924;5.320;2022-08-27T02:46:39;19.60;99.90
25192;DHT22;13143;50.924;5.320;2022-08-27T02:49:06;19.60;99.90
25192;DHT22;13143;50.924;5.320;2022-08-27T02:51:34;19.50;99.90
25192;DHT22;13143;50.924;5.320;2022-08-27T02:54:00;19.50;99.90
25192;DHT22;13143;50.924;5.320;2022-08-27T02:56:26;19.50;99.90
25192;DHT22;13143;50.924;5.320;2022-08-27T02:58:52;19.50;99.90
25192;DHT22;13143;50.924;5.320;2022-08-27T03:01:19;19.50;99.90
25192;DHT22;13143;50.924;5.320;2022-08-27T03:03:44;19.50;99.90
25192;DHT22;13143;50.924;5.320;2022-08-27T03:06:10;19.50;99.90
25192;DHT22;13143;50.924;5.320;2022-08-27T03:08:36;19.40;99.90
25192;DHT22;13143;50.924;5.320;2022-08-27T03:11:01;19.40;99.90
25192;DHT22;13143;50.924;5.320;2022-08-27T03:13:27;19.40;99.90
25192;DHT22;13143;50.924;5.320;2022-08-27T03:15:53;19.40;99.90
25192;DHT22;13143;50.924;5.320;2022-08-27T03:18:19;19.30;99.90
25192;DHT22;13143;50.924;5.320;2022-08-27T03:20:50;19.40;99.90
25192;DHT22;13143;50.924;5.320;2022-08-27T03:23:19;19.30;99.90
25192;DHT22;13143;50.924;5.320;2022-08-27T03:25:49;19.30;99.90
25192;DHT22;13143;50.924;5.320;2022-08-27T03:28:21;19.30;99.90
25192;DHT22;13143;50.924;5.320;2022-08-27T03:30:49;19.30;99.90
25192;DHT22;13143;50.924;5.320;2022-08-27T03:33:17;19.30;99.90
25192;DHT22;13143;50.924;5.320;2022-08-27T03:35:44;19.30;99.90
25192;DHT22;13143;50.924;5.320;2022-08-27T03:38:10;19.20;99.90
25192;DHT22;13143;50.924;5.320;2022-08-27T03:40:36;19.20;99.90
25192;DHT22;13143;50.924;5.320;2022-08-27T03:43:02;19.20;99.90
25192;DHT22;13143;50.924;5.320;2022-08-27T03:45:28;19.20;99.90
25192;DHT22;13143;50.924;5.320;2022-08-27T03:47:54;19.20;99.90
25192;DHT22;13143;50.924;5.320;2022-08-27T03:50:20;19.10;99.90
25192;DHT22;13143;50.924;5.320;2022-08-27T03:52:46;19.10;99.90
25192;DHT22;13143;50.924;5.320;2022-08-27T03:55:12;19.10;99.90
25192;DHT22;13143;50.924;5.320;2022-08-27T03:57:38;19.10;99.90
25192;DHT22;13143;50.924;5.320;2022-08-27T04:00:06;19.10;99.90
25192;DHT22;13143;50.924;5.320;2022-08-27T04:02:34;19.10;99.90
25192;DHT22;13143;50.924;5.320;2022-08-27T04:05:00;19.10;99.90
25192;DHT22;13143;50.924;5.320;2022-08-27T04:07:25;19.00;99.90
25192;DHT22;13143;50.924;5.320;2022-08-27T04:09:51;19.00;99.90
25192;DHT22;13143;50.924;5.320;2022-08-27T04:12:17;19.00;99.90
25192;DHT22;13143;50.924;5.320;2022-08-27T04:14:42;19.00;99.90
25192;DHT22;13143;50.924;5.320;2022-08-27T04:17:08;18.90;99.90
25192;DHT22;13143;50.924;5.320;2022-08-27T04:19:33;19.00;99.90
25192;DHT22;13143;50.924;5.320;2022-08-27T04:22:01;18.90;99.90
25192;DHT22;13143;50.924;5.320;2022-08-27T04:24:29;18.90;99.90
25192;DHT22;13143;50.924;5.320;2022-08-27T04:26:55;18.90;99.90
25192;DHT22;13143;50.924;5.320;2022-08-27T04:29:21;18.90;99.90
25192;DHT22;13143;50.924;5.320;2022-08-27T04:31:46;18.80;99.90
25192;DHT22;13143;50.924;5.320;2022-08-27T04:34:12;18.80;99.90
25192;DHT22;13143;50.924;5.320;2022-08-27T04:36:38;18.80;99.90
25192;DHT22;13143;50.924;5.320;2022-08-27T04:39:03;18.80;99.90
25192;DHT22;13143;50.924;5.320;2022-08-27T04:41:29;18.80;99.90
25192;DHT22;13143;50.924;5.320;2022-08-27T04:44:03;18.80;99.90
25192;DHT22;13143;50.924;5.320;2022-08-27T04:46:31;18.70;99.90
25192;DHT22;13143;50.924;5.320;2022-08-27T04:48:59;18.70;99.90
25192;DHT22;13143;50.924;5.320;2022-08-27T04:51:26;18.70;99.90
25192;DHT22;13143;50.924;5.320;2022-08-27T04:53:52;18.70;99.90
25192;DHT22;13143;50.924;5.320;2022-08-27T04:56:19;18.70;99.90
25192;DHT22;13143;50.924;5.320;2022-08-27T04:58:47;18.70;99.90
25192;DHT22;13143;50.924;5.320;2022-08-27T05:01:26;18.60;99.90
25192;DHT22;13143;50.924;5.320;2022-08-27T05:03:53;18.60;99.90
25192;DHT22;13143;50.924;5.320;2022-08-27T05:06:20;18.60;99.90
25192;DHT22;13143;50.924;5.320;2022-08-27T05:08:50;18.60;99.90
25192;DHT22;13143;50.924;5.320;2022-08-27T05:11:17;18.50;99.90
25192;DHT22;13143;50.924;5.320;2022-08-27T05:13:44;18.50;99.90
25192;DHT22;13143;50.924;5.320;2022-08-27T05:16:14;18.50;99.90
25192;DHT22;13143;50.924;5.320;2022-08-27T05:18:40;18.50;99.90
25192;DHT22;13143;50.924;5.320;2022-08-27T05:21:07;18.50;99.90
25192;DHT22;13143;50.924;5.320;2022-08-27T05:23:34;18.50;99.90
25192;DHT22;13143;50.924;5.320;2022-08-27T05:26:00;18.50;99.90
25192;DHT22;13143;50.924;5.320;2022-08-27T05:28:27;18.50;99.90
25192;DHT22;13143;50.924;5.320;2022-08-27T05:31:01;18.50;99.90
25192;DHT22;13143;50.924;5.320;2022-08-27T05:33:27;18.40;99.90
25192;DHT22;13143;50.924;5.320;2022-08-27T05:35:56;18.40;99.90
25192;DHT22;13143;50.924;5.320;2022-08-27T05:38:25;18.40;99.90
25192;DHT22;13143;50.924;5.320;2022-08-27T05:41:34;18.40;99.90
25192;DHT22;13143;50.924;5.320;2022-08-27T05:43:56;18.40;99.90
25192;DHT22;13143;50.924;5.320;2022-08-27T05:46:24;18.40;99.90
25192;DHT22;13143;50.924;5.320;2022-08-27T05:48:55;18.30;99.90
25192;DHT22;13143;50.924;5.320;2022-08-27T05:51:29;18.30;99.90
25192;DHT22;13143;50.924;5.320;2022-08-27T05:54:16;18.30;99.90
25192;DHT22;13143;50.924;5.320;2022-08-27T05:56:43;18.30;99.90
25192;DHT22;13143;50.924;5.320;2022-08-27T05:59:10;18.30;99.90
25192;DHT22;13143;50.924;5.320;2022-08-27T06:01:55;18.30;99.90
25192;DHT22;13143;50.924;5.320;2022-08-27T06:04:22;18.30;99.90
25192;DHT22;13143;50.924;5.320;2022-08-27T06:06:49;18.30;99.90
25192;DHT22;13143;50.924;5.320;2022-08-27T06:09:18;18.30;99.90
25192;DHT22;13143;50.924;5.320;2022-08-27T06:11:44;18.20;99.90
25192;DHT22;13143;50.924;5.320;2022-08-27T06:14:11;18.20;99.90
25192;DHT22;13143;50.924;5.320;2022-08-27T06:16:37;18.20;99.90
25192;DHT22;13143;50.924;5.320;2022-08-27T06:19:04;18.20;99.90
25192;DHT22;13143;50.924;5.320;2022-08-27T06:21:30;18.20;99.90
25192;DHT22;13143;50.924;5.320;2022-08-27T06:23:56;18.20;99.90
25192;DHT22;13143;50.924;5.320;2022-08-27T06:26:23;18.20;99.90
25192;DHT22;13143;50.924;5.320;2022-08-27T06:28:50;18.20;99.90
25192;DHT22;13143;50.924;5.320;2022-08-27T06:31:19;18.20;99.90
25192;DHT22;13143;50.924;5.320;2022-08-27T06:33:46;18.20;99.90
25192;DHT22;13143;50.924;5.320;2022-08-27T06:36:15;18.10;99.90
25192;DHT22;13143;50.924;5.320;2022-08-27T06:38:41;18.20;99.90
25192;DHT22;13143;50.924;5.320;2022-08-27T06:41:09;18.20;99.90
25192;DHT22;13143;50.924;5.320;2022-08-27T06:43:36;18.20;99.90
25192;DHT22;13143;50.924;5.320;2022-08-27T06:46:07;18.20;99.90
25192;DHT22;13143;50.924;5.320;2022-08-27T06:48:34;18.20;99.90
25192;DHT22;13143;50.924;5.320;2022-08-27T06:51:09;18.20;99.90
25192;DHT22;13143;50.924;5.320;2022-08-27T06:53:37;18.20;99.90
25192;DHT22;13143;50.924;5.320;2022-08-27T06:56:03;18.10;99.90
25192;DHT22;13143;50.924;5.320;2022-08-27T06:58:29;18.20;99.90
25192;DHT22;13143;50.924;5.320;2022-08-27T07:00:55;18.20;99.90
25192;DHT22;13143;50.924;5.320;2022-08-27T07:03:21;18.10;99.90
25192;DHT22;13143;50.924;5.320;2022-08-27T07:05:47;18.20;99.90
25192;DHT22;13143;50.924;5.320;2022-08-27T07:08:12;18.10;99.90
25192;DHT22;13143;50.924;5.320;2022-08-27T07:10:38;18.10;99.90
25192;DHT22;13143;50.924;5.320;2022-08-27T07:13:04;18.20;99.90
25192;DHT22;13143;50.924;5.320;2022-08-27T07:15:30;18.20;99.90
25192;DHT22;13143;50.924;5.320;2022-08-27T07:17:56;18.20;99.90
25192;DHT22;13143;50.924;5.320;2022-08-27T07:20:22;18.10;99.90
25192;DHT22;13143;50.924;5.320;2022-08-27T07:22:48;18.10;99.90
25192;DHT22;13143;50.924;5.320;2022-08-27T07:25:16;18.20;99.90
25192;DHT22;13143;50.924;5.320;2022-08-27T07:27:47;18.20;99.90
25192;DHT22;13143;50.924;5.320;2022-08-27T07:30:14;18.10;99.90
25192;DHT22;13143;50.924;5.320;2022-08-27T07:32:41;18.10;99.90
25192;DHT22;13143;50.924;5.320;2022-08-27T07:35:07;18.10;99.90
25192;DHT22;13143;50.924;5.320;2022-08-27T07:37:37;18.20;99.90
25192;DHT22;13143;50.924;5.320;2022-08-27T07:40:07;18.20;99.90
25192;DHT22;13143;50.924;5.320;2022-08-27T07:42:33;18.20;99.90
25192;DHT22;13143;50.924;5.320;2022-08-27T07:45:18;18.20;99.90
25192;DHT22;13143;50.924;5.320;2022-08-27T07:47:44;18.20;99.90
25192;DHT22;13143;50.924;5.320;2022-08-27T07:50:11;18.20;99.90
25192;DHT22;13143;50.924;5.320;2022-08-27T07:52:37;18.20;99.90
25192;DHT22;13143;50.924;5.320;2022-08-27T07:55:03;18.20;99.90
25192;DHT22;13143;50.924;5.320;2022-08-27T07:57:30;18.20;99.90
25192;DHT22;13143;50.924;5.320;2022-08-27T07:59:56;18.20;99.90
25192;DHT22;13143;50.924;5.320;2022-08-27T08:02:21;18.20;99.90
25192;DHT22;13143;50.924;5.320;2022-08-27T08:04:47;18.20;99.90
25192;DHT22;13143;50.924;5.320;2022-08-27T08:07:13;18.20;99.90
25192;DHT22;13143;50.924;5.320;2022-08-27T08:09:38;18.30;99.90
25192;DHT22;13143;50.924;5.320;2022-08-27T08:12:04;18.30;99.90
25192;DHT22;13143;50.924;5.320;2022-08-27T08:14:31;18.30;99.90
25192;DHT22;13143;50.924;5.320;2022-08-27T08:17:01;18.30;99.90
25192;DHT22;13143;50.924;5.320;2022-08-27T08:19:27;18.30;99.90
25192;DHT22;13143;50.924;5.320;2022-08-27T08:21:53;18.30;99.90
25192;DHT22;13143;50.924;5.320;2022-08-27T08:24:18;18.30;99.90
25192;DHT22;13143;50.924;5.320;2022-08-27T08:26:44;18.30;99.90
25192;DHT22;13143;50.924;5.320;2022-08-27T08:29:10;18.30;99.90
25192;DHT22;13143;50.924;5.320;2022-08-27T08:31:36;18.30;99.90
25192;DHT22;13143;50.924;5.320;2022-08-27T08:34:02;18.30;99.90
25192;DHT22;13143;50.924;5.320;2022-08-27T08:36:27;18.30;99.90
25192;DHT22;13143;50.924;5.320;2022-08-27T08:38:53;18.40;99.90
25192;DHT22;13143;50.924;5.320;2022-08-27T08:41:43;18.40;99.90
25192;DHT22;13143;50.924;5.320;2022-08-27T08:44:16;18.40;99.90
25192;DHT22;13143;50.924;5.320;2022-08-27T08:46:52;18.40;99.90
25192;DHT22;13143;50.924;5.320;2022-08-27T08:49:34;18.40;99.90
25192;DHT22;13143;50.924;5.320;2022-08-27T08:58:13;18.50;99.90
25192;DHT22;13143;50.924;5.320;2022-08-27T09:00:43;18.40;99.90
25192;DHT22;13143;50.924;5.320;2022-08-27T09:03:11;18.50;99.90
25192;DHT22;13143;50.924;5.320;2022-08-27T09:05:42;18.50;99.90
25192;DHT22;13143;50.924;5.320;2022-08-27T09:08:34;18.50;99.90
25192;DHT22;13143;50.924;5.320;2022-08-27T09:14:00;18.50;99.90
25192;DHT22;13143;50.924;5.320;2022-08-27T09:16:26;18.60;99.90
25192;DHT22;13143;50.924;5.320;2022-08-27T09:18:53;18.60;99.90
25192;DHT22;13143;50.924;5.320;2022-08-27T09:24:21;18.60;99.90
25192;DHT22;13143;50.924;5.320;2022-08-27T09:26:48;18.60;99.90
25192;DHT22;13143;50.924;5.320;2022-08-27T09:29:16;18.60;99.90
25192;DHT22;13143;50.924;5.320;2022-08-27T09:31:52;18.70;99.90
25192;DHT22;13143;50.924;5.320;2022-08-27T09:34:19;18.60;99.90
25192;DHT22;13143;50.924;5.320;2022-08-27T09:39:17;18.70;99.90
25192;DHT22;13143;50.924;5.320;2022-08-27T09:41:46;18.70;99.90
25192;DHT22;13143;50.924;5.320;2022-08-27T09:44:17;18.70;99.90
25192;DHT22;13143;50.924;5.320;2022-08-27T09:47:01;18.80;99.90
25192;DHT22;13143;50.924;5.320;2022-08-27T09:49:28;18.80;99.90
25192;DHT22;13143;50.924;5.320;2022-08-27T09:51:55;18.80;99.90
25192;DHT22;13143;50.924;5.320;2022-08-27T09:57:01;18.90;99.90
25192;DHT22;13143;50.924;5.320;2022-08-27T09:59:39;18.90;99.90
25192;DHT22;13143;50.924;5.320;2022-08-27T10:02:13;18.90;99.90
25192;DHT22;13143;50.924;5.320;2022-08-27T10:05:01;19.00;99.90
25192;DHT22;13143;50.924;5.320;2022-08-27T10:11:06;19.00;99.90
25192;DHT22;13143;50.924;5.320;2022-08-27T10:13:14;19.00;99.90
25192;DHT22;13143;50.924;5.320;2022-08-27T10:15:54;19.00;99.90
25192;DHT22;13143;50.924;5.320;2022-08-27T10:26:14;19.20;99.90
25192;DHT22;13143;50.924;5.320;2022-08-27T10:50:49;19.40;99.90
25192;DHT22;13143;50.924;5.320;2022-08-27T10:56:29;19.50;99.90
25192;DHT22;13143;50.924;5.320;2022-08-27T10:59:16;19.60;99.90
25192;DHT22;13143;50.924;5.320;2022-08-27T11:01:53;19.60;99.90
25192;DHT22;13143;50.924;5.320;2022-08-27T11:04:26;19.60;99.90
25192;DHT22;13143;50.924;5.320;2022-08-27T11:09:35;19.70;99.90
25192;DHT22;13143;50.924;5.320;2022-08-27T11:12:05;19.70;99.90
25192;DHT22;13143;50.924;5.320;2022-08-27T11:14:35;19.80;99.90
25192;DHT22;13143;50.924;5.320;2022-08-27T11:17:15;19.80;99.90
25192;DHT22;13143;50.924;5.320;2022-08-27T11:22:21;19.90;99.90
25192;DHT22;13143;50.924;5.320;2022-08-27T11:25:01;19.90;99.90
25192;DHT22;13143;50.924;5.320;2022-08-27T11:27:31;20.00;99.90
25192;DHT22;13143;50.924;5.320;2022-08-27T11:30:08;20.00;99.90
25192;DHT22;13143;50.924;5.320;2022-08-27T11:35:19;20.10;99.90
25192;DHT22;13143;50.924;5.320;2022-08-27T11:43:35;20.20;99.90
25192;DHT22;13143;50.924;5.320;2022-08-27T11:46:05;20.20;99.90
25192;DHT22;13143;50.924;5.320;2022-08-27T11:48:55;20.20;99.90
25192;DHT22;13143;50.924;5.320;2022-08-27T11:51:33;20.30;99.90
25192;DHT22;13143;50.924;5.320;2022-08-27T11:54:04;20.30;99.90
25192;DHT22;13143;50.924;5.320;2022-08-27T11:59:18;20.30;99.90
25192;DHT22;13143;50.924;5.320;2022-08-27T12:01:45;20.40;99.90
25192;DHT22;13143;50.924;5.320;2022-08-27T12:07:08;20.50;99.90
25192;DHT22;13143;50.924;5.320;2022-08-27T12:15:04;20.50;99.90
25192;DHT22;13143;50.924;5.320;2022-08-27T12:17:39;20.60;99.90
25192;DHT22;13143;50.924;5.320;2022-08-27T12:20:25;20.60;99.90
25192;DHT22;13143;50.924;5.320;2022-08-27T12:23:26;20.60;99.90
25192;DHT22;13143;50.924;5.320;2022-08-27T12:32:00;20.70;99.90
25192;DHT22;13143;50.924;5.320;2022-08-27T12:34:28;20.70;99.90
25192;DHT22;13143;50.924;5.320;2022-08-27T12:36:56;20.70;99.90
25192;DHT22;13143;50.924;5.320;2022-08-27T12:39:31;20.70;99.90
25192;DHT22;13143;50.924;5.320;2022-08-27T12:41:59;20.80;99.90
25192;DHT22;13143;50.924;5.320;2022-08-27T12:44:29;20.80;99.90
25192;DHT22;13143;50.924;5.320;2022-08-27T12:47:04;20.80;99.90
25192;DHT22;13143;50.924;5.320;2022-08-27T12:49:46;20.80;99.90
25192;DHT22;13143;50.924;5.320;2022-08-27T12:58:34;20.80;99.90
25192;DHT22;13143;50.924;5.320;2022-08-27T13:03:51;20.90;99.90
25192;DHT22;13143;50.924;5.320;2022-08-27T13:06:21;20.90;99.90
25192;DHT22;13143;50.924;5.320;2022-08-27T13:08:59;20.90;99.90
25192;DHT22;13143;50.924;5.320;2022-08-27T13:11:42;20.90;99.90
25192;DHT22;13143;50.924;5.320;2022-08-27T13:14:11;20.90;99.90
25192;DHT22;13143;50.924;5.320;2022-08-27T13:16:41;20.90;99.90
25192;DHT22;13143;50.924;5.320;2022-08-27T13:21:51;21.00;99.90
25192;DHT22;13143;50.924;5.320;2022-08-27T13:24:33;20.90;99.90
25192;DHT22;13143;50.924;5.320;2022-08-27T13:27:00;21.00;99.90
25192;DHT22;13143;50.924;5.320;2022-08-27T13:29:27;21.00;99.90
25192;DHT22;13143;50.924;5.320;2022-08-27T13:31:53;21.00;99.90
25192;DHT22;13143;50.924;5.320;2022-08-27T13:34:22;21.00;99.90
25192;DHT22;13143;50.924;5.320;2022-08-27T13:39:17;21.00;99.90
25192;DHT22;13143;50.924;5.320;2022-08-27T13:41:45;21.00;99.90
25192;DHT22;13143;50.924;5.320;2022-08-27T13:44:22;21.00;99.90
25192;DHT22;13143;50.924;5.320;2022-08-27T13:46:52;21.00;99.90
25192;DHT22;13143;50.924;5.320;2022-08-27T13:49:24;21.10;99.90
25192;DHT22;13143;50.924;5.320;2022-08-27T13:52:05;21.10;99.90
25192;DHT22;13143;50.924;5.320;2022-08-27T13:54:33;21.10;99.90
25192;DHT22;13143;50.924;5.320;2022-08-27T13:57:04;21.20;99.90
25192;DHT22;13143;50.924;5.320;2022-08-27T13:59:37;21.20;99.90
25192;DHT22;13143;50.924;5.320;2022-08-27T14:04:40;21.20;99.90
25192;DHT22;13143;50.924;5.320;2022-08-27T14:07:28;21.20;99.90
25192;DHT22;13143;50.924;5.320;2022-08-27T14:10:07;21.20;99.90
25192;DHT22;13143;50.924;5.320;2022-08-27T14:12:38;21.20;99.90
25192;DHT22;13143;50.924;5.320;2022-08-27T14:15:34;21.30;99.90
25192;DHT22;13143;50.924;5.320;2022-08-27T14:18:03;21.30;99.90
25192;DHT22;13143;50.924;5.320;2022-08-27T14:20:29;21.30;99.90
25192;DHT22;13143;50.924;5.320;2022-08-27T14:22:54;21.30;99.90
25192;DHT22;13143;50.924;5.320;2022-08-27T14:25:21;21.30;99.90
25192;DHT22;13143;50.924;5.320;2022-08-27T14:27:48;21.30;99.90
25192;DHT22;13143;50.924;5.320;2022-08-27T14:30:16;21.30;99.90
25192;DHT22;13143;50.924;5.320;2022-08-27T14:32:42;21.30;99.90
25192;DHT22;13143;50.924;5.320;2022-08-27T14:35:09;21.30;99.90
25192;DHT22;13143;50.924;5.320;2022-08-27T14:37:37;21.30;99.90
25192;DHT22;13143;50.924;5.320;2022-08-27T14:40:04;21.30;99.90
25192;DHT22;13143;50.924;5.320;2022-08-27T14:42:30;21.40;99.90
25192;DHT22;13143;50.924;5.320;2022-08-27T14:44:55;21.40;99.90
25192;DHT22;13143;50.924;5.320;2022-08-27T14:47:21;21.40;99.90
25192;DHT22;13143;50.924;5.320;2022-08-27T14:49:47;21.40;99.90
25192;DHT22;13143;50.924;5.320;2022-08-27T14:52:13;21.40;99.90
25192;DHT22;13143;50.924;5.320;2022-08-27T14:54:39;21.40;99.90
25192;DHT22;13143;50.924;5.320;2022-08-27T14:57:07;21.40;99.90
25192;DHT22;13143;50.924;5.320;2022-08-27T14:59:34;21.40;99.90
25192;DHT22;13143;50.924;5.320;2022-08-27T15:02:03;21.50;99.90
25192;DHT22;13143;50.924;5.320;2022-08-27T15:04:29;21.50;99.90
25192;DHT22;13143;50.924;5.320;2022-08-27T15:06:56;21.40;99.90
25192;DHT22;13143;50.924;5.320;2022-08-27T15:09:22;21.50;99.90
25192;DHT22;13143;50.924;5.320;2022-08-27T15:11:48;21.50;99.90
25192;DHT22;13143;50.924;5.320;2022-08-27T15:14:25;21.50;99.90
25192;DHT22;13143;50.924;5.320;2022-08-27T15:16:52;21.50;99.90
25192;DHT22;13143;50.924;5.320;2022-08-27T15:19:19;21.50;99.90
25192;DHT22;13143;50.924;5.320;2022-08-27T15:21:47;21.50;99.90
25192;DHT22;13143;50.924;5.320;2022-08-27T15:24:17;21.50;99.90
25192;DHT22;13143;50.924;5.320;2022-08-27T15:26:43;21.50;99.90
25192;DHT22;13143;50.924;5.320;2022-08-27T15:29:09;21.50;99.90
25192;DHT22;13143;50.924;5.320;2022-08-27T15:31:35;21.50;99.70
25192;DHT22;13143;50.924;5.320;2022-08-27T15:34:01;21.50;99.70
25192;DHT22;13143;50.924;5.320;2022-08-27T15:36:27;21.50;99.50
25192;DHT22;13143;50.924;5.320;2022-08-27T15:38:52;21.50;99.50
25192;DHT22;13143;50.924;5.320;2022-08-27T15:41:20;21.50;99.50
25192;DHT22;13143;50.924;5.320;2022-08-27T15:43:45;21.50;99.40
25192;DHT22;13143;50.924;5.320;2022-08-27T15:46:11;21.60;99.40
25192;DHT22;13143;50.924;5.320;2022-08-27T15:48:37;21.50;99.40
25192;DHT22;13143;50.924;5.320;2022-08-27T15:51:06;21.60;99.50
25192;DHT22;13143;50.924;5.320;2022-08-27T15:53:33;21.60;99.40
25192;DHT22;13143;50.924;5.320;2022-08-27T15:55:59;21.60;99.70
25192;DHT22;13143;50.924;5.320;2022-08-27T15:58:27;21.60;99.50
25192;DHT22;13143;50.924;5.320;2022-08-27T16:00:53;21.60;99.50
25192;DHT22;13143;50.924;5.320;2022-08-27T16:03:18;21.60;99.40
25192;DHT22;13143;50.924;5.320;2022-08-27T16:05:45;21.60;99.50
25192;DHT22;13143;50.924;5.320;2022-08-27T16:08:12;21.60;99.40
25192;DHT22;13143;50.924;5.320;2022-08-27T16:10:38;21.60;99.30
25192;DHT22;13143;50.924;5.320;2022-08-27T16:13:04;21.60;99.30
25192;DHT22;13143;50.924;5.320;2022-08-27T16:15:32;21.60;99.40
25192;DHT22;13143;50.924;5.320;2022-08-27T16:17:59;21.60;99.50
25192;DHT22;13143;50.924;5.320;2022-08-27T16:20:28;21.60;99.40
25192;DHT22;13143;50.924;5.320;2022-08-27T16:22:53;21.60;99.40
25192;DHT22;13143;50.924;5.320;2022-08-27T16:25:19;21.70;99.50
25192;DHT22;13143;50.924;5.320;2022-08-27T16:27:48;21.60;99.50
25192;DHT22;13143;50.924;5.320;2022-08-27T16:30:14;21.70;99.50
25192;DHT22;13143;50.924;5.320;2022-08-27T16:32:42;21.70;99.50
25192;DHT22;13143;50.924;5.320;2022-08-27T16:35:08;21.70;99.50
25192;DHT22;13143;50.924;5.320;2022-08-27T16:37:34;21.60;99.30
25192;DHT22;13143;50.924;5.320;2022-08-27T16:40:00;21.70;99.10
25192;DHT22;13143;50.924;5.320;2022-08-27T16:42:26;21.70;99.10
25192;DHT22;13143;50.924;5.320;2022-08-27T16:44:51;21.60;99.10
25192;DHT22;13143;50.924;5.320;2022-08-27T16:47:17;21.70;99.10
25192;DHT22;13143;50.924;5.320;2022-08-27T16:49:43;21.70;99.00
25192;DHT22;13143;50.924;5.320;2022-08-27T16:52:27;21.70;99.00
25192;DHT22;13143;50.924;5.320;2022-08-27T16:54:53;21.70;99.20
25192;DHT22;13143;50.924;5.320;2022-08-27T16:57:21;21.70;98.90
25192;DHT22;13143;50.924;5.320;2022-08-27T16:59:47;21.70;98.90
25192;DHT22;13143;50.924;5.320;2022-08-27T17:02:20;21.70;98.90
25192;DHT22;13143;50.924;5.320;2022-08-27T17:04:49;21.70;98.80
25192;DHT22;13143;50.924;5.320;2022-08-27T17:07:15;21.70;98.80
25192;DHT22;13143;50.924;5.320;2022-08-27T17:09:40;21.70;98.80
25192;DHT22;13143;50.924;5.320;2022-08-27T17:12:06;21.70;98.90
25192;DHT22;13143;50.924;5.320;2022-08-27T17:14:33;21.70;98.70
25192;DHT22;13143;50.924;5.320;2022-08-27T17:17:03;21.70;98.70
25192;DHT22;13143;50.924;5.320;2022-08-27T17:19:29;21.70;98.70
25192;DHT22;13143;50.924;5.320;2022-08-27T17:21:56;21.70;98.70